Terminal Aerodrome Forecast
Issued by NWS Billings, MT

Home | Current Version | Previous Version | Graphics & Text | Print | Product List | Glossary Off
Versions: 1 2 3 4 5 6 7 8 9 10 11 12 13 14 15 16 17 18 19 20 21 22 23 24 25 26 27 28 29 30 31 32

000
FTUS45 KBYZ 111727
TAFMLS
TAF
KMLS 111727Z 1118/1218 07013G22KT P6SM SCT080
     FM112300 06015G24KT P6SM VCTS SCT080CB BKN120
     FM120400 05015G24KT P6SM VCSH SCT100
     FM121100 04008KT P6SM SCT100 WS018/08024KT
     FM121500 08008KT P6SM SCT100=

USA.gov is the U.S. government's official web portal to all federal, state and local government web resources and services.